AirNav   Pilot Hours Calculator
 
 299 users online  

3TA5 Blanco Landing Airport
Blanco, Texas, USA

GOING TO BLANCO?


FAA INFORMATION EFFECTIVE 26 MARCH 2020

Location

FAA Identifier: 3TA5
Lat/Long: 30-07-20.8800N 098-22-29.2200W
30-07.348000N 098-22.487000W
30.1224667,-98.3747833
(estimated)
Elevation: 1460 ft. / 445 m (estimated)
Variation: 07E (1985)
From city: 3 miles NE of BLANCO, TX
Time zone: UTC -5 (UTC -6 during Standard Time)
Zip code: 78606

Airport Operations

Airport use: Private use. Permission required prior to landing
Activation date: 03/1981
Control tower: no
ARTCC: HOUSTON CENTER
FSS: SAN ANGELO FLIGHT SERVICE STATION
Attendance: UNATNDD
Wind indicator: yes
Segmented circle: no

Airport Communications

CTAF: 122.9

Nearby radio navigation aids

VOR radial/distance  VOR name  Freq  Var
STVr098/17.9STONEWALL VORTAC113.8008E
SATr001/29.1SAN ANTONIO VORTAC116.8008E
RNDr348/36.5RANDOLPH VORTAC112.3005E

Airport Services

Runway Information

Runway 1/19

Dimensions: 3450 x 27 ft. / 1052 x 8 m
Surface: asphalt
RUNWAY 1  RUNWAY 19
Traffic pattern: leftleft

Airport Ownership and Management from official FAA records

Ownership: Privately-owned
Owner: THE LANDING P.O.A.
3238 HWY 281 N
BLANCO, TX 78606
Phone (510) 910-3269
Manager: ROBERT GARCIA JR
3238 HWY 281 N
BLANCO, TX 78606
Phone (915) 525-7792
OTR (512) 461-5158

Airport Operational Statistics

Aircraft based on the field: 9
Single engine airplanes: 8
Helicopters: 1
    

Additional Remarks

FOR CD CTC HOUSTON ARTCC AT 281-230-5622.
RCMD OVER-FLY FLD TO INSURE RWY CLEAR OF WILDLIFE & MAINT CREWS AND TO CHECK WIND DRCTN FOR LNDG.
TALL TREES AT SOUTH AER TO INSURE PROPER CLNC.

Instrument Procedures

There are no published instrument procedures at 3TA5.

Some nearby airports with instrument procedures:

3R9 - Lakeway Airpark (24 nm NE)
T82 - Gillespie County Airport (29 nm W)
5C1 - Boerne Stage Field Airport (29 nm SW)
KHYI - San Marcos Regional Airport (30 nm SE)
KBAZ - New Braunfels Regional Airport (30 nm SE)
 
Loc | Ops | Rwys | IFR | FBO | Links
Com | Nav | Svcs | Stats | Notes
Area around 3TA5 (Blanco Landing Airport)
 
Road maps at: MapQuest Bing Google
 
Aerial photo
WARNING: Photo may not be current or correct
Aerial photo of 3TA5 (Blanco Landing Airport)
Photo taken 18-Jul-2017
looking south.

Do you have a better or more recent aerial photo of Blanco Landing Airport that you would like to share? If so, please send us your photo.

 
Sectional chart

 
Airport distance calculator
Flying to Blanco Landing Airport? Find the distance to fly.

From to 3TA5

Sunrise and sunset
Times for 05-Apr-2020
 Local
(UTC-5)
 Zulu
(UTC)
Morning civil twilight06:5411:54
Sunrise07:1812:18
Sunset19:5400:54
Evening civil twilight20:1801:18

Current date and time
Zulu (UTC)  05-Apr-2020 06:52:56
Local (UTC-5)  05-Apr-2020 01:52:56
 
METAR
KDZB 
24nm N 
050640Z AUTO 00000KT 1 1/2SM BR OVC003 11/11 A3004 RMK AO2
KT82 
29nm W 
050635Z AUTO 00000KT 5SM BR OVC003 11/11 A3003 RMK AO2 T01080106
K5C1 
29nm SW 
050635Z AUTO 36004KT 10SM SCT004 SCT007 OVC015 11/11 A3002 RMK AO1
KBAZ 
30nm SE 
050628Z AUTO 02006KT 8SM OVC007 13/11 A3000 RMK AO2 T01280111
KHYI 
30nm SE 
050556Z AUTO 02009KT 9SM OVC005 12/11 A3002 RMK AO2 SLP163 T01170111 10117 20100 401170078 55003
KRYW 
31nm NE 
050635Z AUTO 03004KT 1/4SM FG OVC003 10/10 A3003 RMK AO2 T00980098
KSAT 
36nm S 
050628Z 02005KT 10SM OVC013 13/11 A3000 RMK AO2 T01330111 $
KAUS 
36nm E 
050553Z 01009KT 7SM OVC005 12/11 A3003 RMK AO2 SLP170 T01170106 10117 20106 401170078 53001
KATT 
37nm E 
050551Z AUTO 01004KT 6SM BR OVC004 11/09 A3004 RMK AO2 SLP173 60000 T01110094 10117 20106 401170072 55004 $
KRND 
37nm S 
050631Z AUTO 02005KT 10SM BKN008 OVC016 12/08 A3000 RMK AO2 CIG 008V010 SLP158 $
TAF
KSAT 
36nm S 
050533Z 0506/0612 02005KT P6SM SCT009 OVC015 FM050800 02005KT 3SM BR OVC007 FM051700 09007KT P6SM BKN015 FM052100 09007KT P6SM BKN040 FM060600 14005KT P6SM OVC015 FM060900 14005KT 3SM BR OVC008
KAUS 
36nm E 
050533Z 0506/0612 01006KT P6SM OVC009 FM050800 01005KT 3SM BR OVC007 FM051700 05006KT P6SM BKN015 FM052100 09006KT P6SM BKN040 FM060900 16005KT 3SM BR OVC015
NOTAMs
Click for the latest NOTAMs
NOTAMs are issued by the DoD/FAA and will open in a separate window not controlled by AirNav.

 

 
 

Would you like to see your business listed on this page?

 If your business provides an interesting product or service to pilots, flight crews, aircraft, or users of the Blanco Landing Airport, you should consider listing it here.  To start the listing process, click on the button below
 
Add a business
 

Other Pages about Blanco Landing Airport

Update a link
 
Copyright © AirNav, LLC. All rights reserved. Privacy Policy  Contact